sensor_id;sensor_type;location;lat;lon;timestamp;P1;durP1;ratioP1;P2;durP2;ratioP2
37049;SDS011;22958;51.232;6.826;2023-02-11T00:01:23;70.18;;;29.95;;
37049;SDS011;22958;51.232;6.826;2023-02-11T00:03:53;70.13;;;29.90;;
37049;SDS011;22958;51.232;6.826;2023-02-11T00:06:19;62.93;;;30.37;;
37049;SDS011;22958;51.232;6.826;2023-02-11T00:08:45;65.57;;;29.10;;
37049;SDS011;22958;51.232;6.826;2023-02-11T00:11:11;74.57;;;30.30;;
37049;SDS011;22958;51.232;6.826;2023-02-11T00:13:41;68.28;;;29.13;;
37049;SDS011;22958;51.232;6.826;2023-02-11T00:16:09;61.72;;;28.35;;
37049;SDS011;22958;51.232;6.826;2023-02-11T00:18:37;69.85;;;30.30;;
37049;SDS011;22958;51.232;6.826;2023-02-11T00:21:06;71.03;;;28.70;;
37049;SDS011;22958;51.232;6.826;2023-02-11T00:23:34;65.70;;;27.67;;
37049;SDS011;22958;51.232;6.826;2023-02-11T00:25:59;65.20;;;26.50;;
37049;SDS011;22958;51.232;6.826;2023-02-11T00:28:25;57.97;;;27.13;;
37049;SDS011;22958;51.232;6.826;2023-02-11T00:30:54;58.60;;;25.37;;
37049;SDS011;22958;51.232;6.826;2023-02-11T00:33:20;64.43;;;26.30;;
37049;SDS011;22958;51.232;6.826;2023-02-11T00:35:46;67.40;;;26.53;;
37049;SDS011;22958;51.232;6.826;2023-02-11T00:38:11;58.90;;;26.40;;
37049;SDS011;22958;51.232;6.826;2023-02-11T00:40:37;61.90;;;26.37;;
37049;SDS011;22958;51.232;6.826;2023-02-11T00:43:02;62.63;;;27.43;;
37049;SDS011;22958;51.232;6.826;2023-02-11T00:45:28;61.40;;;26.93;;
37049;SDS011;22958;51.232;6.826;2023-02-11T00:47:54;58.85;;;26.40;;
37049;SDS011;22958;51.232;6.826;2023-02-11T00:50:20;56.20;;;26.70;;
37049;SDS011;22958;51.232;6.826;2023-02-11T00:52:46;70.03;;;27.13;;
37049;SDS011;22958;51.232;6.826;2023-02-11T00:55:12;52.23;;;25.30;;
37049;SDS011;22958;51.232;6.826;2023-02-11T00:57:37;58.40;;;25.90;;
37049;SDS011;22958;51.232;6.826;2023-02-11T01:00:04;64.27;;;27.40;;
37049;SDS011;22958;51.232;6.826;2023-02-11T01:02:30;62.53;;;26.67;;
37049;SDS011;22958;51.232;6.826;2023-02-11T01:04:55;59.77;;;27.37;;
37049;SDS011;22958;51.232;6.826;2023-02-11T01:07:23;57.50;;;26.02;;
37049;SDS011;22958;51.232;6.826;2023-02-11T01:09:49;58.53;;;26.37;;
37049;SDS011;22958;51.232;6.826;2023-02-11T01:12:14;62.27;;;27.43;;
37049;SDS011;22958;51.232;6.826;2023-02-11T01:14:40;70.43;;;28.93;;
37049;SDS011;22958;51.232;6.826;2023-02-11T01:17:05;58.73;;;27.53;;
37049;SDS011;22958;51.232;6.826;2023-02-11T01:19:31;63.40;;;27.87;;
37049;SDS011;22958;51.232;6.826;2023-02-11T01:21:56;59.70;;;26.67;;
37049;SDS011;22958;51.232;6.826;2023-02-11T01:24:22;61.67;;;27.13;;
37049;SDS011;22958;51.232;6.826;2023-02-11T01:26:47;62.33;;;27.13;;
37049;SDS011;22958;51.232;6.826;2023-02-11T01:29:13;58.17;;;27.03;;
37049;SDS011;22958;51.232;6.826;2023-02-11T01:31:38;63.33;;;28.43;;
37049;SDS011;22958;51.232;6.826;2023-02-11T01:34:04;64.73;;;27.77;;
37049;SDS011;22958;51.232;6.826;2023-02-11T01:36:29;62.13;;;28.27;;
37049;SDS011;22958;51.232;6.826;2023-02-11T01:38:55;61.83;;;26.77;;
37049;SDS011;22958;51.232;6.826;2023-02-11T01:41:20;66.77;;;29.50;;
37049;SDS011;22958;51.232;6.826;2023-02-11T01:43:47;70.40;;;27.40;;
37049;SDS011;22958;51.232;6.826;2023-02-11T01:48:56;66.28;;;27.95;;
37049;SDS011;22958;51.232;6.826;2023-02-11T01:51:32;53.92;;;26.35;;
37049;SDS011;22958;51.232;6.826;2023-02-11T01:54:21;57.20;;;27.40;;
37049;SDS011;22958;51.232;6.826;2023-02-11T01:57:07;61.17;;;26.35;;
37049;SDS011;22958;51.232;6.826;2023-02-11T02:02:19;67.15;;;28.25;;
37049;SDS011;22958;51.232;6.826;2023-02-11T02:05:06;62.85;;;26.33;;
37049;SDS011;22958;51.232;6.826;2023-02-11T02:07:55;61.08;;;26.35;;
37049;SDS011;22958;51.232;6.826;2023-02-11T02:10:34;60.70;;;26.63;;
37049;SDS011;22958;51.232;6.826;2023-02-11T02:13:02;58.83;;;25.77;;
37049;SDS011;22958;51.232;6.826;2023-02-11T02:15:28;51.93;;;25.17;;
37049;SDS011;22958;51.232;6.826;2023-02-11T02:18:01;60.15;;;25.42;;
37049;SDS011;22958;51.232;6.826;2023-02-11T02:20:51;57.88;;;26.35;;
37049;SDS011;22958;51.232;6.826;2023-02-11T02:23:52;60.47;;;25.85;;
37049;SDS011;22958;51.232;6.826;2023-02-11T02:26:48;61.25;;;25.67;;
37049;SDS011;22958;51.232;6.826;2023-02-11T02:29:45;58.42;;;24.58;;
37049;SDS011;22958;51.232;6.826;2023-02-11T02:37:42;60.15;;;27.25;;
37049;SDS011;22958;51.232;6.826;2023-02-11T02:40:16;64.60;;;25.58;;
37049;SDS011;22958;51.232;6.826;2023-02-11T02:42:53;61.80;;;25.58;;
37049;SDS011;22958;51.232;6.826;2023-02-11T02:47:45;60.28;;;25.40;;
37049;SDS011;22958;51.232;6.826;2023-02-11T02:50:11;65.20;;;26.00;;
37049;SDS011;22958;51.232;6.826;2023-02-11T02:52:41;59.65;;;27.02;;
37049;SDS011;22958;51.232;6.826;2023-02-11T02:55:42;71.82;;;27.00;;
37049;SDS011;22958;51.232;6.826;2023-02-11T02:58:32;61.47;;;26.00;;
37049;SDS011;22958;51.232;6.826;2023-02-11T03:01:40;65.53;;;25.38;;
37049;SDS011;22958;51.232;6.826;2023-02-11T03:07:26;70.05;;;26.85;;
37049;SDS011;22958;51.232;6.826;2023-02-11T03:10:16;60.78;;;26.40;;
37049;SDS011;22958;51.232;6.826;2023-02-11T03:12:47;59.60;;;26.55;;
37049;SDS011;22958;51.232;6.826;2023-02-11T03:15:13;67.22;;;26.60;;
37049;SDS011;22958;51.232;6.826;2023-02-11T03:17:41;70.10;;;26.05;;
37049;SDS011;22958;51.232;6.826;2023-02-11T03:20:12;65.75;;;26.65;;
37049;SDS011;22958;51.232;6.826;2023-02-11T03:22:41;61.00;;;27.35;;
37049;SDS011;22958;51.232;6.826;2023-02-11T03:25:13;62.22;;;25.58;;
37049;SDS011;22958;51.232;6.826;2023-02-11T03:27:44;64.07;;;27.38;;
37049;SDS011;22958;51.232;6.826;2023-02-11T03:30:25;68.13;;;25.38;;
37049;SDS011;22958;51.232;6.826;2023-02-11T03:33:00;59.53;;;25.40;;
37049;SDS011;22958;51.232;6.826;2023-02-11T03:35:35;61.47;;;25.85;;
37049;SDS011;22958;51.232;6.826;2023-02-11T03:38:11;67.25;;;26.08;;
37049;SDS011;22958;51.232;6.826;2023-02-11T03:40:47;65.05;;;25.33;;
37049;SDS011;22958;51.232;6.826;2023-02-11T03:45:45;60.28;;;24.42;;
37049;SDS011;22958;51.232;6.826;2023-02-11T03:48:17;63.17;;;25.55;;
37049;SDS011;22958;51.232;6.826;2023-02-11T03:50:47;68.13;;;25.58;;
37049;SDS011;22958;51.232;6.826;2023-02-11T03:53:15;58.70;;;25.13;;
37049;SDS011;22958;51.232;6.826;2023-02-11T03:55:44;60.33;;;24.15;;
37049;SDS011;22958;51.232;6.826;2023-02-11T03:58:12;63.00;;;24.58;;
37049;SDS011;22958;51.232;6.826;2023-02-11T04:00:39;60.67;;;27.33;;
37049;SDS011;22958;51.232;6.826;2023-02-11T04:03:06;65.13;;;25.65;;
37049;SDS011;22958;51.232;6.826;2023-02-11T04:05:34;63.83;;;24.10;;
37049;SDS011;22958;51.232;6.826;2023-02-11T04:07:59;60.00;;;24.80;;
37049;SDS011;22958;51.232;6.826;2023-02-11T04:10:25;59.73;;;25.83;;
37049;SDS011;22958;51.232;6.826;2023-02-11T04:12:50;57.73;;;25.17;;
37049;SDS011;22958;51.232;6.826;2023-02-11T04:15:16;65.77;;;25.60;;
37049;SDS011;22958;51.232;6.826;2023-02-11T04:17:42;74.53;;;25.90;;
37049;SDS011;22958;51.232;6.826;2023-02-11T04:20:08;55.77;;;22.53;;
37049;SDS011;22958;51.232;6.826;2023-02-11T04:25:00;59.47;;;23.52;;
37049;SDS011;22958;51.232;6.826;2023-02-11T04:27:26;71.30;;;24.67;;
37049;SDS011;22958;51.232;6.826;2023-02-11T04:29:51;54.70;;;23.80;;
37049;SDS011;22958;51.232;6.826;2023-02-11T04:32:18;64.97;;;24.90;;
37049;SDS011;22958;51.232;6.826;2023-02-11T04:34:43;65.40;;;25.57;;
37049;SDS011;22958;51.232;6.826;2023-02-11T04:37:09;60.13;;;25.63;;
37049;SDS011;22958;51.232;6.826;2023-02-11T04:39:34;63.73;;;25.17;;
37049;SDS011;22958;51.232;6.826;2023-02-11T04:42:00;66.83;;;24.63;;
37049;SDS011;22958;51.232;6.826;2023-02-11T04:44:25;65.13;;;24.40;;
37049;SDS011;22958;51.232;6.826;2023-02-11T04:46:51;60.33;;;24.90;;
37049;SDS011;22958;51.232;6.826;2023-02-11T04:51:43;59.92;;;23.58;;
37049;SDS011;22958;51.232;6.826;2023-02-11T04:54:10;75.23;;;25.23;;
37049;SDS011;22958;51.232;6.826;2023-02-11T04:56:36;62.50;;;25.05;;
37049;SDS011;22958;51.232;6.826;2023-02-11T04:59:02;65.23;;;26.70;;
37049;SDS011;22958;51.232;6.826;2023-02-11T05:01:28;72.30;;;25.90;;
37049;SDS011;22958;51.232;6.826;2023-02-11T05:03:54;64.37;;;26.30;;
37049;SDS011;22958;51.232;6.826;2023-02-11T05:06:19;76.37;;;27.43;;
37049;SDS011;22958;51.232;6.826;2023-02-11T05:08:45;74.10;;;29.07;;
37049;SDS011;22958;51.232;6.826;2023-02-11T05:11:15;67.80;;;26.67;;
37049;SDS011;22958;51.232;6.826;2023-02-11T05:13:42;81.05;;;30.80;;
37049;SDS011;22958;51.232;6.826;2023-02-11T05:16:08;73.70;;;29.70;;
37049;SDS011;22958;51.232;6.826;2023-02-11T05:18:36;89.47;;;31.20;;
37049;SDS011;22958;51.232;6.826;2023-02-11T05:21:09;88.07;;;30.73;;
37049;SDS011;22958;51.232;6.826;2023-02-11T05:23:40;82.80;;;31.35;;
37049;SDS011;22958;51.232;6.826;2023-02-11T05:26:06;81.70;;;31.80;;
37049;SDS011;22958;51.232;6.826;2023-02-11T05:28:32;79.25;;;30.70;;
37049;SDS011;22958;51.232;6.826;2023-02-11T05:30:59;82.57;;;30.23;;
37049;SDS011;22958;51.232;6.826;2023-02-11T05:33:24;86.00;;;31.17;;
37049;SDS011;22958;51.232;6.826;2023-02-11T05:35:50;86.83;;;31.27;;
37049;SDS011;22958;51.232;6.826;2023-02-11T05:38:16;87.90;;;32.93;;
37049;SDS011;22958;51.232;6.826;2023-02-11T05:40:41;87.97;;;32.53;;
37049;SDS011;22958;51.232;6.826;2023-02-11T05:43:07;95.13;;;32.80;;
37049;SDS011;22958;51.232;6.826;2023-02-11T05:45:32;86.13;;;32.70;;
37049;SDS011;22958;51.232;6.826;2023-02-11T05:47:58;93.43;;;33.47;;
37049;SDS011;22958;51.232;6.826;2023-02-11T05:50:24;98.03;;;34.50;;
37049;SDS011;22958;51.232;6.826;2023-02-11T05:52:50;87.97;;;33.60;;
37049;SDS011;22958;51.232;6.826;2023-02-11T05:55:15;99.60;;;34.90;;
37049;SDS011;22958;51.232;6.826;2023-02-11T05:57:41;84.27;;;34.80;;
37049;SDS011;22958;51.232;6.826;2023-02-11T06:00:07;88.50;;;33.57;;
37049;SDS011;22958;51.232;6.826;2023-02-11T06:02:34;78.95;;;33.35;;
37049;SDS011;22958;51.232;6.826;2023-02-11T06:04:59;96.80;;;34.70;;
37049;SDS011;22958;51.232;6.826;2023-02-11T06:07:25;105.77;;;36.63;;
37049;SDS011;22958;51.232;6.826;2023-02-11T06:09:51;93.27;;;35.17;;
37049;SDS011;22958;51.232;6.826;2023-02-11T06:12:16;100.97;;;35.90;;
37049;SDS011;22958;51.232;6.826;2023-02-11T06:14:42;89.37;;;33.30;;
37049;SDS011;22958;51.232;6.826;2023-02-11T06:17:08;104.53;;;34.60;;
37049;SDS011;22958;51.232;6.826;2023-02-11T06:19:34;82.10;;;33.23;;
37049;SDS011;22958;51.232;6.826;2023-02-11T06:21:59;97.27;;;35.07;;
37049;SDS011;22958;51.232;6.826;2023-02-11T06:24:25;110.20;;;34.73;;
37049;SDS011;22958;51.232;6.826;2023-02-11T06:26:50;91.67;;;34.53;;
37049;SDS011;22958;51.232;6.826;2023-02-11T06:29:16;92.77;;;35.97;;
37049;SDS011;22958;51.232;6.826;2023-02-11T06:31:41;104.37;;;37.40;;
37049;SDS011;22958;51.232;6.826;2023-02-11T06:34:08;100.33;;;36.27;;
37049;SDS011;22958;51.232;6.826;2023-02-11T06:36:34;92.00;;;36.13;;
37049;SDS011;22958;51.232;6.826;2023-02-11T06:39:00;99.28;;;36.80;;
37049;SDS011;22958;51.232;6.826;2023-02-11T06:41:26;98.23;;;36.23;;
37049;SDS011;22958;51.232;6.826;2023-02-11T06:43:51;100.33;;;37.03;;
37049;SDS011;22958;51.232;6.826;2023-02-11T06:46:17;99.53;;;36.97;;
37049;SDS011;22958;51.232;6.826;2023-02-11T06:48:42;110.30;;;35.13;;
37049;SDS011;22958;51.232;6.826;2023-02-11T06:51:09;94.07;;;36.30;;
37049;SDS011;22958;51.232;6.826;2023-02-11T06:53:36;90.72;;;36.28;;
37049;SDS011;22958;51.232;6.826;2023-02-11T06:56:04;93.82;;;36.38;;
37049;SDS011;22958;51.232;6.826;2023-02-11T06:58:31;87.13;;;33.53;;
37049;SDS011;22958;51.232;6.826;2023-02-11T07:00:56;101.50;;;35.67;;
37049;SDS011;22958;51.232;6.826;2023-02-11T07:03:22;101.57;;;36.70;;
37049;SDS011;22958;51.232;6.826;2023-02-11T07:05:48;110.43;;;35.80;;
37049;SDS011;22958;51.232;6.826;2023-02-11T07:08:13;96.30;;;34.33;;
37049;SDS011;22958;51.232;6.826;2023-02-11T07:10:39;102.10;;;35.60;;
37049;SDS011;22958;51.232;6.826;2023-02-11T07:13:05;105.00;;;33.30;;
37049;SDS011;22958;51.232;6.826;2023-02-11T07:15:30;91.87;;;34.67;;
37049;SDS011;22958;51.232;6.826;2023-02-11T07:17:56;95.80;;;36.17;;
37049;SDS011;22958;51.232;6.826;2023-02-11T07:20:22;99.40;;;34.63;;
37049;SDS011;22958;51.232;6.826;2023-02-11T07:22:47;109.13;;;37.00;;
37049;SDS011;22958;51.232;6.826;2023-02-11T07:25:13;113.33;;;36.03;;
37049;SDS011;22958;51.232;6.826;2023-02-11T07:27:39;115.50;;;37.20;;
37049;SDS011;22958;51.232;6.826;2023-02-11T07:30:05;104.80;;;34.50;;
37049;SDS011;22958;51.232;6.826;2023-02-11T07:32:31;106.72;;;34.80;;
37049;SDS011;22958;51.232;6.826;2023-02-11T07:34:56;109.60;;;33.77;;
37049;SDS011;22958;51.232;6.826;2023-02-11T07:37:22;87.23;;;34.57;;
37049;SDS011;22958;51.232;6.826;2023-02-11T07:39:47;100.13;;;34.37;;
37049;SDS011;22958;51.232;6.826;2023-02-11T07:42:13;101.33;;;34.57;;
37049;SDS011;22958;51.232;6.826;2023-02-11T07:44:38;98.40;;;31.87;;
37049;SDS011;22958;51.232;6.826;2023-02-11T07:47:04;115.13;;;35.77;;
37049;SDS011;22958;51.232;6.826;2023-02-11T07:49:29;94.13;;;34.60;;
37049;SDS011;22958;51.232;6.826;2023-02-11T07:51:55;105.27;;;34.93;;
37049;SDS011;22958;51.232;6.826;2023-02-11T07:54:20;99.27;;;31.77;;
37049;SDS011;22958;51.232;6.826;2023-02-11T07:56:46;91.93;;;33.17;;
37049;SDS011;22958;51.232;6.826;2023-02-11T07:59:11;103.63;;;34.87;;
37049;SDS011;22958;51.232;6.826;2023-02-11T08:01:37;98.53;;;34.73;;
37049;SDS011;22958;51.232;6.826;2023-02-11T08:04:03;103.20;;;35.67;;
37049;SDS011;22958;51.232;6.826;2023-02-11T08:06:29;101.67;;;35.43;;
37049;SDS011;22958;51.232;6.826;2023-02-11T08:08:56;104.35;;;35.58;;
37049;SDS011;22958;51.232;6.826;2023-02-11T08:11:24;100.82;;;35.95;;
37049;SDS011;22958;51.232;6.826;2023-02-11T08:13:52;97.18;;;33.80;;
37049;SDS011;22958;51.232;6.826;2023-02-11T08:16:23;97.95;;;34.00;;
37049;SDS011;22958;51.232;6.826;2023-02-11T08:18:54;93.82;;;34.22;;
37049;SDS011;22958;51.232;6.826;2023-02-11T08:21:21;97.72;;;34.05;;
37049;SDS011;22958;51.232;6.826;2023-02-11T08:23:47;101.27;;;34.83;;
37049;SDS011;22958;51.232;6.826;2023-02-11T08:26:17;99.32;;;35.20;;
37049;SDS011;22958;51.232;6.826;2023-02-11T08:28:51;106.82;;;35.65;;
37049;SDS011;22958;51.232;6.826;2023-02-11T08:31:25;111.05;;;36.88;;
37049;SDS011;22958;51.232;6.826;2023-02-11T08:33:52;111.43;;;36.03;;
37049;SDS011;22958;51.232;6.826;2023-02-11T08:36:22;127.55;;;37.72;;
37049;SDS011;22958;51.232;6.826;2023-02-11T08:38:49;100.70;;;34.10;;
37049;SDS011;22958;51.232;6.826;2023-02-11T08:41:15;124.80;;;37.40;;
37049;SDS011;22958;51.232;6.826;2023-02-11T08:43:41;98.30;;;35.45;;
37049;SDS011;22958;51.232;6.826;2023-02-11T08:48:35;104.82;;;35.17;;
37049;SDS011;22958;51.232;6.826;2023-02-11T08:51:04;105.70;;;37.63;;
37049;SDS011;22958;51.232;6.826;2023-02-11T08:53:32;109.07;;;37.05;;
37049;SDS011;22958;51.232;6.826;2023-02-11T08:55:57;121.73;;;38.97;;
37049;SDS011;22958;51.232;6.826;2023-02-11T08:58:23;126.87;;;37.73;;
37049;SDS011;22958;51.232;6.826;2023-02-11T09:00:49;120.37;;;36.07;;
37049;SDS011;22958;51.232;6.826;2023-02-11T09:03:14;120.47;;;40.27;;
37049;SDS011;22958;51.232;6.826;2023-02-11T09:05:41;123.97;;;39.40;;
37049;SDS011;22958;51.232;6.826;2023-02-11T09:08:08;118.57;;;37.42;;
37049;SDS011;22958;51.232;6.826;2023-02-11T09:10:33;116.37;;;38.20;;
37049;SDS011;22958;51.232;6.826;2023-02-11T09:12:59;124.20;;;38.87;;
37049;SDS011;22958;51.232;6.826;2023-02-11T09:15:25;132.13;;;41.30;;
37049;SDS011;22958;51.232;6.826;2023-02-11T09:17:50;114.73;;;38.73;;
37049;SDS011;22958;51.232;6.826;2023-02-11T09:20:16;103.33;;;36.83;;
37049;SDS011;22958;51.232;6.826;2023-02-11T09:22:42;123.87;;;37.43;;
37049;SDS011;22958;51.232;6.826;2023-02-11T09:25:07;127.57;;;40.07;;
37049;SDS011;22958;51.232;6.826;2023-02-11T09:27:33;106.37;;;37.60;;
37049;SDS011;22958;51.232;6.826;2023-02-11T09:29:58;126.87;;;38.60;;
37049;SDS011;22958;51.232;6.826;2023-02-11T09:32:24;104.47;;;37.13;;
37049;SDS011;22958;51.232;6.826;2023-02-11T09:34:49;115.67;;;37.00;;
37049;SDS011;22958;51.232;6.826;2023-02-11T09:37:15;102.07;;;37.40;;
37049;SDS011;22958;51.232;6.826;2023-02-11T09:39:40;102.00;;;38.10;;
37049;SDS011;22958;51.232;6.826;2023-02-11T09:42:18;112.17;;;37.40;;
37049;SDS011;22958;51.232;6.826;2023-02-11T09:45:01;117.18;;;38.60;;
37049;SDS011;22958;51.232;6.826;2023-02-11T09:47:35;113.05;;;39.80;;
37049;SDS011;22958;51.232;6.826;2023-02-11T09:50:12;118.43;;;37.97;;
37049;SDS011;22958;51.232;6.826;2023-02-11T09:55:23;116.35;;;39.28;;
37049;SDS011;22958;51.232;6.826;2023-02-11T09:57:52;116.60;;;39.10;;
37049;SDS011;22958;51.232;6.826;2023-02-11T10:00:20;115.93;;;37.30;;
37049;SDS011;22958;51.232;6.826;2023-02-11T10:06:19;130.10;;;39.70;;
37049;SDS011;22958;51.232;6.826;2023-02-11T10:11:51;113.25;;;41.30;;
37049;SDS011;22958;51.232;6.826;2023-02-11T10:22:25;129.20;;;40.90;;
37049;SDS011;22958;51.232;6.826;2023-02-11T10:24:56;136.18;;;38.03;;
37049;SDS011;22958;51.232;6.826;2023-02-11T10:27:29;116.45;;;39.95;;
37049;SDS011;22958;51.232;6.826;2023-02-11T10:30:05;121.13;;;39.88;;
37049;SDS011;22958;51.232;6.826;2023-02-11T10:32:44;135.20;;;38.97;;
37049;SDS011;22958;51.232;6.826;2023-02-11T10:35:16;125.78;;;41.22;;
37049;SDS011;22958;51.232;6.826;2023-02-11T10:37:46;111.57;;;37.97;;
37049;SDS011;22958;51.232;6.826;2023-02-11T10:40:13;121.75;;;40.97;;
37049;SDS011;22958;51.232;6.826;2023-02-11T10:42:53;111.30;;;38.97;;
37049;SDS011;22958;51.232;6.826;2023-02-11T10:45:31;129.90;;;41.70;;
37049;SDS011;22958;51.232;6.826;2023-02-11T10:51:18;117.65;;;40.42;;
37049;SDS011;22958;51.232;6.826;2023-02-11T10:56:29;111.93;;;38.33;;
37049;SDS011;22958;51.232;6.826;2023-02-11T10:59:03;125.38;;;41.45;;
37049;SDS011;22958;51.232;6.826;2023-02-11T11:01:42;115.78;;;39.90;;
37049;SDS011;22958;51.232;6.826;2023-02-11T11:06:55;127.90;;;44.20;;
37049;SDS011;22958;51.232;6.826;2023-02-11T11:09:28;134.30;;;45.15;;
37049;SDS011;22958;51.232;6.826;2023-02-11T11:11:54;114.30;;;40.78;;
37049;SDS011;22958;51.232;6.826;2023-02-11T11:14:20;146.30;;;41.53;;
37049;SDS011;22958;51.232;6.826;2023-02-11T11:16:52;133.73;;;41.30;;
37049;SDS011;22958;51.232;6.826;2023-02-11T11:21:53;130.60;;;41.65;;
37049;SDS011;22958;51.232;6.826;2023-02-11T11:26:54;128.18;;;43.17;;
37049;SDS011;22958;51.232;6.826;2023-02-11T11:29:22;126.38;;;43.65;;
37049;SDS011;22958;51.232;6.826;2023-02-11T11:31:53;137.77;;;44.38;;
37049;SDS011;22958;51.232;6.826;2023-02-11T11:34:31;128.65;;;45.25;;
37049;SDS011;22958;51.232;6.826;2023-02-11T11:37:12;144.35;;;44.47;;
37049;SDS011;22958;51.232;6.826;2023-02-11T11:39:47;125.95;;;44.38;;
37049;SDS011;22958;51.232;6.826;2023-02-11T11:42:31;142.25;;;44.97;;
37049;SDS011;22958;51.232;6.826;2023-02-11T11:45:00;137.00;;;46.33;;
37049;SDS011;22958;51.232;6.826;2023-02-11T11:47:30;141.05;;;44.13;;
37049;SDS011;22958;51.232;6.826;2023-02-11T11:55:41;142.65;;;46.05;;
37049;SDS011;22958;51.232;6.826;2023-02-11T11:58:14;141.18;;;44.90;;
37049;SDS011;22958;51.232;6.826;2023-02-11T12:00:49;143.35;;;46.67;;
37049;SDS011;22958;51.232;6.826;2023-02-11T12:11:50;157.60;;;47.13;;
37049;SDS011;22958;51.232;6.826;2023-02-11T12:17:43;146.75;;;45.03;;
37049;SDS011;22958;51.232;6.826;2023-02-11T12:23:52;148.73;;;45.08;;
37049;SDS011;22958;51.232;6.826;2023-02-11T12:26:20;146.77;;;45.78;;
37049;SDS011;22958;51.232;6.826;2023-02-11T12:39:12;136.52;;;46.03;;
37049;SDS011;22958;51.232;6.826;2023-02-11T12:42:18;139.13;;;46.38;;
37049;SDS011;22958;51.232;6.826;2023-02-11T12:45:19;128.20;;;43.30;;
37049;SDS011;22958;51.232;6.826;2023-02-11T12:56:39;129.20;;;45.10;;
37049;SDS011;22958;51.232;6.826;2023-02-11T12:59:29;128.45;;;45.83;;
37049;SDS011;22958;51.232;6.826;2023-02-11T13:01:52;147.77;;;45.72;;
37049;SDS011;22958;51.232;6.826;2023-02-11T13:04:24;137.90;;;46.03;;
37049;SDS011;22958;51.232;6.826;2023-02-11T13:06:58;135.15;;;45.83;;
37049;SDS011;22958;51.232;6.826;2023-02-11T13:12:14;138.35;;;44.30;;
37049;SDS011;22958;51.232;6.826;2023-02-11T13:15:01;124.72;;;43.88;;
37049;SDS011;22958;51.232;6.826;2023-02-11T13:17:32;132.18;;;46.40;;
37049;SDS011;22958;51.232;6.826;2023-02-11T13:20:24;138.15;;;44.88;;
37049;SDS011;22958;51.232;6.826;2023-02-11T13:25:35;135.63;;;45.33;;
37049;SDS011;22958;51.232;6.826;2023-02-11T13:28:38;121.93;;;44.53;;
37049;SDS011;22958;51.232;6.826;2023-02-11T13:31:07;112.22;;;41.47;;
37049;SDS011;22958;51.232;6.826;2023-02-11T13:33:37;125.70;;;43.67;;
37049;SDS011;22958;51.232;6.826;2023-02-11T13:38:32;121.73;;;45.27;;
37049;SDS011;22958;51.232;6.826;2023-02-11T13:41:00;131.55;;;42.08;;
37049;SDS011;22958;51.232;6.826;2023-02-11T13:43:44;125.70;;;43.17;;
37049;SDS011;22958;51.232;6.826;2023-02-11T13:51:49;120.10;;;42.72;;
37049;SDS011;22958;51.232;6.826;2023-02-11T13:54:27;121.65;;;44.47;;
37049;SDS011;22958;51.232;6.826;2023-02-11T13:57:35;123.00;;;41.67;;
37049;SDS011;22958;51.232;6.826;2023-02-11T14:00:00;127.20;;;42.83;;
37049;SDS011;22958;51.232;6.826;2023-02-11T14:02:31;124.45;;;44.40;;
37049;SDS011;22958;51.232;6.826;2023-02-11T14:11:41;131.18;;;44.53;;
37049;SDS011;22958;51.232;6.826;2023-02-11T14:19:32;132.55;;;44.38;;
37049;SDS011;22958;51.232;6.826;2023-02-11T14:22:02;123.53;;;44.50;;
37049;SDS011;22958;51.232;6.826;2023-02-11T14:27:09;124.17;;;45.37;;
37049;SDS011;22958;51.232;6.826;2023-02-11T14:30:05;126.28;;;44.72;;
37049;SDS011;22958;51.232;6.826;2023-02-11T14:35:11;115.93;;;42.20;;
37049;SDS011;22958;51.232;6.826;2023-02-11T14:43:22;114.97;;;42.75;;
37049;SDS011;22958;51.232;6.826;2023-02-11T14:45:52;122.65;;;43.67;;
37049;SDS011;22958;51.232;6.826;2023-02-11T14:48:20;114.95;;;42.03;;
37049;SDS011;22958;51.232;6.826;2023-02-11T14:51:11;134.50;;;42.55;;
37049;SDS011;22958;51.232;6.826;2023-02-11T14:53:50;112.93;;;41.92;;
37049;SDS011;22958;51.232;6.826;2023-02-11T14:58:50;119.03;;;41.72;;
37049;SDS011;22958;51.232;6.826;2023-02-11T15:03:54;120.32;;;41.65;;
37049;SDS011;22958;51.232;6.826;2023-02-11T15:06:37;107.95;;;41.45;;
37049;SDS011;22958;51.232;6.826;2023-02-11T15:11:52;108.95;;;38.70;;
37049;SDS011;22958;51.232;6.826;2023-02-11T15:14:23;108.57;;;39.38;;
37049;SDS011;22958;51.232;6.826;2023-02-11T15:16:55;108.82;;;40.55;;
37049;SDS011;22958;51.232;6.826;2023-02-11T15:19:33;99.22;;;40.08;;
37049;SDS011;22958;51.232;6.826;2023-02-11T15:22:04;97.15;;;39.50;;
37049;SDS011;22958;51.232;6.826;2023-02-11T15:24:33;107.18;;;39.58;;
37049;SDS011;22958;51.232;6.826;2023-02-11T15:27:08;109.63;;;39.97;;
37049;SDS011;22958;51.232;6.826;2023-02-11T15:29:46;113.07;;;42.40;;
37049;SDS011;22958;51.232;6.826;2023-02-11T15:34:42;119.00;;;41.05;;
37049;SDS011;22958;51.232;6.826;2023-02-11T15:37:12;117.30;;;42.65;;
37049;SDS011;22958;51.232;6.826;2023-02-11T15:39:49;101.45;;;41.35;;
37049;SDS011;22958;51.232;6.826;2023-02-11T15:42:25;120.55;;;43.22;;
37049;SDS011;22958;51.232;6.826;2023-02-11T15:47:39;125.20;;;41.25;;
37049;SDS011;22958;51.232;6.826;2023-02-11T15:50:20;121.90;;;43.35;;
37049;SDS011;22958;51.232;6.826;2023-02-11T15:52:47;124.72;;;43.22;;
37049;SDS011;22958;51.232;6.826;2023-02-11T15:55:14;113.50;;;43.15;;
37049;SDS011;22958;51.232;6.826;2023-02-11T15:57:42;120.03;;;41.92;;
37049;SDS011;22958;51.232;6.826;2023-02-11T16:00:16;120.85;;;44.63;;
37049;SDS011;22958;51.232;6.826;2023-02-11T16:02:44;118.13;;;43.35;;
37049;SDS011;22958;51.232;6.826;2023-02-11T16:07:59;120.82;;;44.08;;
37049;SDS011;22958;51.232;6.826;2023-02-11T16:10:37;119.55;;;41.97;;
37049;SDS011;22958;51.232;6.826;2023-02-11T16:21:02;123.05;;;43.58;;
37049;SDS011;22958;51.232;6.826;2023-02-11T16:26:05;106.07;;;40.17;;
37049;SDS011;22958;51.232;6.826;2023-02-11T16:28:35;121.43;;;44.50;;
37049;SDS011;22958;51.232;6.826;2023-02-11T16:31:01;132.63;;;45.15;;
37049;SDS011;22958;51.232;6.826;2023-02-11T16:33:27;123.57;;;43.85;;
37049;SDS011;22958;51.232;6.826;2023-02-11T16:35:53;119.90;;;45.27;;
37049;SDS011;22958;51.232;6.826;2023-02-11T16:38:19;108.80;;;40.87;;
37049;SDS011;22958;51.232;6.826;2023-02-11T16:40:45;129.57;;;44.70;;
37049;SDS011;22958;51.232;6.826;2023-02-11T16:43:14;121.50;;;46.80;;
37049;SDS011;22958;51.232;6.826;2023-02-11T16:45:42;126.45;;;45.60;;
37049;SDS011;22958;51.232;6.826;2023-02-11T16:48:08;127.03;;;47.47;;
37049;SDS011;22958;51.232;6.826;2023-02-11T16:50:38;134.38;;;47.00;;
37049;SDS011;22958;51.232;6.826;2023-02-11T16:53:10;119.55;;;45.58;;
37049;SDS011;22958;51.232;6.826;2023-02-11T16:55:36;127.93;;;45.57;;
37049;SDS011;22958;51.232;6.826;2023-02-11T16:58:01;137.50;;;45.90;;
37049;SDS011;22958;51.232;6.826;2023-02-11T17:00:27;136.87;;;47.37;;
37049;SDS011;22958;51.232;6.826;2023-02-11T17:02:53;131.90;;;46.22;;
37049;SDS011;22958;51.232;6.826;2023-02-11T17:05:20;140.53;;;48.57;;
37049;SDS011;22958;51.232;6.826;2023-02-11T17:07:47;133.40;;;47.53;;
37049;SDS011;22958;51.232;6.826;2023-02-11T17:10:14;147.00;;;48.30;;
37049;SDS011;22958;51.232;6.826;2023-02-11T17:12:40;128.73;;;46.97;;